sensor_id;sensor_type;location;lat;lon;timestamp;temperature;humidity
26408;DHT22;14583;43.604;1.364;2023-01-24T00:06:57;1.30;99.90
26408;DHT22;14583;43.604;1.364;2023-01-24T00:10:13;1.20;99.90
26408;DHT22;14583;43.604;1.364;2023-01-24T00:13:20;1.20;99.90
26408;DHT22;14583;43.604;1.364;2023-01-24T00:16:05;1.30;99.90
26408;DHT22;14583;43.604;1.364;2023-01-24T00:18:36;1.30;99.90
26408;DHT22;14583;43.604;1.364;2023-01-24T00:21:20;1.30;99.90
26408;DHT22;14583;43.604;1.364;2023-01-24T00:27:17;1.30;99.90
26408;DHT22;14583;43.604;1.364;2023-01-24T00:29:43;1.20;99.90
26408;DHT22;14583;43.604;1.364;2023-01-24T00:32:09;1.20;99.90
26408;DHT22;14583;43.604;1.364;2023-01-24T00:34:53;1.20;99.90
26408;DHT22;14583;43.604;1.364;2023-01-24T00:37:39;1.30;99.90
26408;DHT22;14583;43.604;1.364;2023-01-24T00:40:06;1.20;99.90
26408;DHT22;14583;43.604;1.364;2023-01-24T00:42:32;1.20;99.90
26408;DHT22;14583;43.604;1.364;2023-01-24T00:44:57;1.30;99.90
26408;DHT22;14583;43.604;1.364;2023-01-24T00:47:24;1.30;99.90
26408;DHT22;14583;43.604;1.364;2023-01-24T00:49:50;1.20;99.90
26408;DHT22;14583;43.604;1.364;2023-01-24T00:52:16;1.20;99.90
26408;DHT22;14583;43.604;1.364;2023-01-24T00:54:42;1.10;99.90
26408;DHT22;14583;43.604;1.364;2023-01-24T00:57:07;1.20;99.90
26408;DHT22;14583;43.604;1.364;2023-01-24T00:59:33;1.20;99.90
26408;DHT22;14583;43.604;1.364;2023-01-24T01:01:59;1.20;99.90
26408;DHT22;14583;43.604;1.364;2023-01-24T01:04:24;1.30;99.90
26408;DHT22;14583;43.604;1.364;2023-01-24T01:06:50;1.30;99.90
26408;DHT22;14583;43.604;1.364;2023-01-24T01:09:15;1.30;99.90
26408;DHT22;14583;43.604;1.364;2023-01-24T01:11:41;1.20;99.90
26408;DHT22;14583;43.604;1.364;2023-01-24T01:14:08;1.30;99.90
26408;DHT22;14583;43.604;1.364;2023-01-24T01:16:34;1.30;99.90
26408;DHT22;14583;43.604;1.364;2023-01-24T01:19:03;1.30;99.90
26408;DHT22;14583;43.604;1.364;2023-01-24T01:21:29;1.30;99.90
26408;DHT22;14583;43.604;1.364;2023-01-24T01:23:55;1.20;99.90
26408;DHT22;14583;43.604;1.364;2023-01-24T01:26:21;1.30;99.90
26408;DHT22;14583;43.604;1.364;2023-01-24T01:28:47;1.30;99.90
26408;DHT22;14583;43.604;1.364;2023-01-24T01:31:14;1.40;99.90
26408;DHT22;14583;43.604;1.364;2023-01-24T01:33:40;1.40;99.90
26408;DHT22;14583;43.604;1.364;2023-01-24T01:36:07;1.30;99.90
26408;DHT22;14583;43.604;1.364;2023-01-24T01:38:33;1.30;99.90
26408;DHT22;14583;43.604;1.364;2023-01-24T01:40:59;1.30;99.90
26408;DHT22;14583;43.604;1.364;2023-01-24T01:43:28;1.30;99.90
26408;DHT22;14583;43.604;1.364;2023-01-24T01:46:20;1.30;99.90
26408;DHT22;14583;43.604;1.364;2023-01-24T01:48:51;1.40;99.90
26408;DHT22;14583;43.604;1.364;2023-01-24T01:51:25;1.30;99.90
26408;DHT22;14583;43.604;1.364;2023-01-24T01:54:20;1.30;99.90
26408;DHT22;14583;43.604;1.364;2023-01-24T01:57:01;1.30;99.90
26408;DHT22;14583;43.604;1.364;2023-01-24T01:59:37;1.30;99.90
26408;DHT22;14583;43.604;1.364;2023-01-24T02:02:07;1.30;99.90
26408;DHT22;14583;43.604;1.364;2023-01-24T02:04:40;1.30;99.90
26408;DHT22;14583;43.604;1.364;2023-01-24T02:07:19;1.30;99.90
26408;DHT22;14583;43.604;1.364;2023-01-24T02:09:49;1.40;99.90
26408;DHT22;14583;43.604;1.364;2023-01-24T02:12:30;1.40;99.90
26408;DHT22;14583;43.604;1.364;2023-01-24T02:15:07;1.40;99.90
26408;DHT22;14583;43.604;1.364;2023-01-24T02:17:51;1.40;99.90
26408;DHT22;14583;43.604;1.364;2023-01-24T02:20:52;1.30;99.90
26408;DHT22;14583;43.604;1.364;2023-01-24T02:23:39;1.30;99.90
26408;DHT22;14583;43.604;1.364;2023-01-24T02:26:23;1.40;99.90
26408;DHT22;14583;43.604;1.364;2023-01-24T02:28:56;1.30;99.90
26408;DHT22;14583;43.604;1.364;2023-01-24T02:31:23;1.30;99.90
26408;DHT22;14583;43.604;1.364;2023-01-24T02:33:49;1.40;99.90
26408;DHT22;14583;43.604;1.364;2023-01-24T02:39:02;1.30;99.90
26408;DHT22;14583;43.604;1.364;2023-01-24T02:41:36;1.40;99.90
26408;DHT22;14583;43.604;1.364;2023-01-24T02:44:07;1.40;99.90
26408;DHT22;14583;43.604;1.364;2023-01-24T02:46:37;1.40;99.90
26408;DHT22;14583;43.604;1.364;2023-01-24T02:49:07;1.30;99.90
26408;DHT22;14583;43.604;1.364;2023-01-24T02:51:33;1.30;99.90
26408;DHT22;14583;43.604;1.364;2023-01-24T02:54:17;1.30;99.90
26408;DHT22;14583;43.604;1.364;2023-01-24T02:56:43;1.20;99.90
26408;DHT22;14583;43.604;1.364;2023-01-24T02:59:27;1.20;99.90
26408;DHT22;14583;43.604;1.364;2023-01-24T03:01:53;1.30;99.90
26408;DHT22;14583;43.604;1.364;2023-01-24T03:04:18;1.30;99.90
26408;DHT22;14583;43.604;1.364;2023-01-24T03:06:44;1.20;99.90
26408;DHT22;14583;43.604;1.364;2023-01-24T03:09:09;1.20;99.90
26408;DHT22;14583;43.604;1.364;2023-01-24T03:11:48;1.30;99.90
26408;DHT22;14583;43.604;1.364;2023-01-24T03:14:15;1.30;99.90
26408;DHT22;14583;43.604;1.364;2023-01-24T03:16:59;1.30;99.90
26408;DHT22;14583;43.604;1.364;2023-01-24T03:19:44;1.30;99.90
26408;DHT22;14583;43.604;1.364;2023-01-24T03:22:28;1.30;99.90
26408;DHT22;14583;43.604;1.364;2023-01-24T03:25:12;1.30;99.90
26408;DHT22;14583;43.604;1.364;2023-01-24T03:28:01;1.30;99.90
26408;DHT22;14583;43.604;1.364;2023-01-24T03:30:45;1.40;99.90
26408;DHT22;14583;43.604;1.364;2023-01-24T03:33:29;1.30;99.90
26408;DHT22;14583;43.604;1.364;2023-01-24T03:36:14;1.40;99.90
26408;DHT22;14583;43.604;1.364;2023-01-24T03:38:45;1.40;99.90
26408;DHT22;14583;43.604;1.364;2023-01-24T03:41:30;1.40;99.90
26408;DHT22;14583;43.604;1.364;2023-01-24T03:43:56;1.40;99.90
26408;DHT22;14583;43.604;1.364;2023-01-24T03:46:21;1.30;99.90
26408;DHT22;14583;43.604;1.364;2023-01-24T03:48:47;1.40;99.90
26408;DHT22;14583;43.604;1.364;2023-01-24T03:51:13;1.50;99.90
26408;DHT22;14583;43.604;1.364;2023-01-24T03:53:57;1.30;99.90
26408;DHT22;14583;43.604;1.364;2023-01-24T03:56:23;1.40;99.90
26408;DHT22;14583;43.604;1.364;2023-01-24T03:58:49;1.40;99.90
26408;DHT22;14583;43.604;1.364;2023-01-24T04:01:19;1.40;99.90
26408;DHT22;14583;43.604;1.364;2023-01-24T04:03:45;1.40;99.90
26408;DHT22;14583;43.604;1.364;2023-01-24T04:06:10;1.40;99.90
26408;DHT22;14583;43.604;1.364;2023-01-24T04:08:36;1.40;99.90
26408;DHT22;14583;43.604;1.364;2023-01-24T04:11:11;1.30;99.90
26408;DHT22;14583;43.604;1.364;2023-01-24T04:13:36;1.40;99.90
26408;DHT22;14583;43.604;1.364;2023-01-24T04:16:02;1.30;99.90
26408;DHT22;14583;43.604;1.364;2023-01-24T04:18:30;1.20;99.90
26408;DHT22;14583;43.604;1.364;2023-01-24T04:20:56;1.20;99.90
26408;DHT22;14583;43.604;1.364;2023-01-24T04:23:25;1.30;99.90
26408;DHT22;14583;43.604;1.364;2023-01-24T04:25:54;1.40;99.90
26408;DHT22;14583;43.604;1.364;2023-01-24T04:28:23;1.30;99.90
26408;DHT22;14583;43.604;1.364;2023-01-24T04:30:58;1.20;99.90
26408;DHT22;14583;43.604;1.364;2023-01-24T04:33:24;1.20;99.90
26408;DHT22;14583;43.604;1.364;2023-01-24T04:35:57;1.20;99.90
26408;DHT22;14583;43.604;1.364;2023-01-24T04:38:32;1.20;99.90
26408;DHT22;14583;43.604;1.364;2023-01-24T04:41:03;1.10;99.90
26408;DHT22;14583;43.604;1.364;2023-01-24T04:43:40;1.10;99.90
26408;DHT22;14583;43.604;1.364;2023-01-24T04:46:05;1.20;99.90
26408;DHT22;14583;43.604;1.364;2023-01-24T04:48:31;1.20;99.90
26408;DHT22;14583;43.604;1.364;2023-01-24T04:51:02;1.20;99.90
26408;DHT22;14583;43.604;1.364;2023-01-24T04:53:37;1.20;99.90
26408;DHT22;14583;43.604;1.364;2023-01-24T04:56:05;1.30;99.90
26408;DHT22;14583;43.604;1.364;2023-01-24T04:58:32;1.30;99.90
26408;DHT22;14583;43.604;1.364;2023-01-24T05:01:04;1.40;99.90
26408;DHT22;14583;43.604;1.364;2023-01-24T05:03:49;1.40;99.90
26408;DHT22;14583;43.604;1.364;2023-01-24T05:06:26;1.40;99.90
26408;DHT22;14583;43.604;1.364;2023-01-24T05:08:56;1.50;99.90
26408;DHT22;14583;43.604;1.364;2023-01-24T05:11:22;1.50;99.90
26408;DHT22;14583;43.604;1.364;2023-01-24T05:13:51;1.50;99.90
26408;DHT22;14583;43.604;1.364;2023-01-24T05:16:18;1.50;99.90
26408;DHT22;14583;43.604;1.364;2023-01-24T05:18:59;1.40;99.90
26408;DHT22;14583;43.604;1.364;2023-01-24T05:21:25;1.50;99.90
26408;DHT22;14583;43.604;1.364;2023-01-24T05:23:52;1.60;99.90
26408;DHT22;14583;43.604;1.364;2023-01-24T05:26:20;1.60;99.90
26408;DHT22;14583;43.604;1.364;2023-01-24T05:28:47;1.60;99.90
26408;DHT22;14583;43.604;1.364;2023-01-24T05:31:13;1.60;99.90
26408;DHT22;14583;43.604;1.364;2023-01-24T05:33:39;1.50;99.90
26408;DHT22;14583;43.604;1.364;2023-01-24T05:36:14;1.60;99.90
26408;DHT22;14583;43.604;1.364;2023-01-24T05:38:41;1.70;99.90
26408;DHT22;14583;43.604;1.364;2023-01-24T05:41:09;1.70;99.90
26408;DHT22;14583;43.604;1.364;2023-01-24T05:43:36;1.80;99.90
26408;DHT22;14583;43.604;1.364;2023-01-24T05:46:09;1.80;99.90
26408;DHT22;14583;43.604;1.364;2023-01-24T05:48:35;1.60;99.90
26408;DHT22;14583;43.604;1.364;2023-01-24T05:51:06;1.60;99.90
26408;DHT22;14583;43.604;1.364;2023-01-24T05:53:34;1.60;99.90
26408;DHT22;14583;43.604;1.364;2023-01-24T05:56:06;1.50;99.90
26408;DHT22;14583;43.604;1.364;2023-01-24T05:58:34;1.60;99.90
26408;DHT22;14583;43.604;1.364;2023-01-24T06:01:00;1.50;99.90
26408;DHT22;14583;43.604;1.364;2023-01-24T06:03:25;1.60;99.90
26408;DHT22;14583;43.604;1.364;2023-01-24T06:05:53;1.60;99.90
26408;DHT22;14583;43.604;1.364;2023-01-24T06:08:20;1.50;99.90
26408;DHT22;14583;43.604;1.364;2023-01-24T06:10:46;1.40;99.90
26408;DHT22;14583;43.604;1.364;2023-01-24T06:13:12;1.50;99.90
26408;DHT22;14583;43.604;1.364;2023-01-24T06:15:38;1.60;99.90
26408;DHT22;14583;43.604;1.364;2023-01-24T06:18:05;1.60;99.90
26408;DHT22;14583;43.604;1.364;2023-01-24T06:20:31;1.70;99.90
26408;DHT22;14583;43.604;1.364;2023-01-24T06:23:03;1.60;99.90
26408;DHT22;14583;43.604;1.364;2023-01-24T06:25:29;1.60;99.90
26408;DHT22;14583;43.604;1.364;2023-01-24T06:27:55;1.50;99.90
26408;DHT22;14583;43.604;1.364;2023-01-24T06:30:21;1.50;99.90
26408;DHT22;14583;43.604;1.364;2023-01-24T06:35:47;1.60;99.90
26408;DHT22;14583;43.604;1.364;2023-01-24T06:38:21;1.60;99.90
26408;DHT22;14583;43.604;1.364;2023-01-24T06:40:51;1.40;99.90
26408;DHT22;14583;43.604;1.364;2023-01-24T06:43:18;1.40;99.90
26408;DHT22;14583;43.604;1.364;2023-01-24T06:45:44;1.40;99.90
26408;DHT22;14583;43.604;1.364;2023-01-24T06:48:09;1.50;99.90
26408;DHT22;14583;43.604;1.364;2023-01-24T06:50:35;1.50;99.90
26408;DHT22;14583;43.604;1.364;2023-01-24T06:53:01;1.40;99.90
26408;DHT22;14583;43.604;1.364;2023-01-24T06:55:27;1.50;99.90
26408;DHT22;14583;43.604;1.364;2023-01-24T06:57:59;1.50;99.90
26408;DHT22;14583;43.604;1.364;2023-01-24T07:00:25;1.60;99.90
26408;DHT22;14583;43.604;1.364;2023-01-24T07:03:05;1.60;99.90
26408;DHT22;14583;43.604;1.364;2023-01-24T07:05:36;1.60;99.90
26408;DHT22;14583;43.604;1.364;2023-01-24T07:08:02;1.60;99.90
26408;DHT22;14583;43.604;1.364;2023-01-24T07:10:28;1.60;99.90
26408;DHT22;14583;43.604;1.364;2023-01-24T07:12:54;1.50;99.90
26408;DHT22;14583;43.604;1.364;2023-01-24T07:15:20;1.50;99.90
26408;DHT22;14583;43.604;1.364;2023-01-24T07:17:46;1.40;99.90
26408;DHT22;14583;43.604;1.364;2023-01-24T07:20:13;1.30;99.90
26408;DHT22;14583;43.604;1.364;2023-01-24T07:22:40;1.40;99.90
26408;DHT22;14583;43.604;1.364;2023-01-24T07:25:18;1.50;99.90
26408;DHT22;14583;43.604;1.364;2023-01-24T07:27:45;1.60;99.90
26408;DHT22;14583;43.604;1.364;2023-01-24T07:30:12;1.60;99.90
26408;DHT22;14583;43.604;1.364;2023-01-24T07:32:38;1.60;99.90
26408;DHT22;14583;43.604;1.364;2023-01-24T07:35:06;1.50;99.90
26408;DHT22;14583;43.604;1.364;2023-01-24T07:37:32;1.60;99.90
26408;DHT22;14583;43.604;1.364;2023-01-24T07:39:57;1.60;99.90
26408;DHT22;14583;43.604;1.364;2023-01-24T07:42:23;1.70;99.90
26408;DHT22;14583;43.604;1.364;2023-01-24T07:44:49;1.70;99.90
26408;DHT22;14583;43.604;1.364;2023-01-24T07:47:15;1.60;99.90
26408;DHT22;14583;43.604;1.364;2023-01-24T07:49:41;1.70;99.90
26408;DHT22;14583;43.604;1.364;2023-01-24T07:52:07;1.70;99.90
26408;DHT22;14583;43.604;1.364;2023-01-24T07:54:32;1.80;99.90
26408;DHT22;14583;43.604;1.364;2023-01-24T07:56:59;1.70;99.90
26408;DHT22;14583;43.604;1.364;2023-01-24T07:59:25;1.60;99.90
26408;DHT22;14583;43.604;1.364;2023-01-24T08:01:51;1.70;99.90
26408;DHT22;14583;43.604;1.364;2023-01-24T08:04:17;1.80;99.90
26408;DHT22;14583;43.604;1.364;2023-01-24T08:06:42;1.80;99.90
26408;DHT22;14583;43.604;1.364;2023-01-24T08:09:28;1.80;99.90
26408;DHT22;14583;43.604;1.364;2023-01-24T08:11:54;1.80;99.90
26408;DHT22;14583;43.604;1.364;2023-01-24T08:14:20;1.80;99.90
26408;DHT22;14583;43.604;1.364;2023-01-24T08:16:50;1.90;99.90
26408;DHT22;14583;43.604;1.364;2023-01-24T08:19:16;1.90;99.90
26408;DHT22;14583;43.604;1.364;2023-01-24T08:21:41;2.00;99.90
26408;DHT22;14583;43.604;1.364;2023-01-24T08:24:07;2.00;99.90
26408;DHT22;14583;43.604;1.364;2023-01-24T08:26:33;2.00;99.90
26408;DHT22;14583;43.604;1.364;2023-01-24T08:28:59;2.00;99.90
26408;DHT22;14583;43.604;1.364;2023-01-24T08:31:24;2.00;99.90
26408;DHT22;14583;43.604;1.364;2023-01-24T08:33:50;2.10;99.90
26408;DHT22;14583;43.604;1.364;2023-01-24T08:36:17;2.10;99.90
26408;DHT22;14583;43.604;1.364;2023-01-24T08:38:44;2.00;99.90
26408;DHT22;14583;43.604;1.364;2023-01-24T08:41:10;1.90;99.90
26408;DHT22;14583;43.604;1.364;2023-01-24T08:43:36;2.10;99.90
26408;DHT22;14583;43.604;1.364;2023-01-24T08:46:02;2.00;99.90
26408;DHT22;14583;43.604;1.364;2023-01-24T08:48:29;2.00;99.90
26408;DHT22;14583;43.604;1.364;2023-01-24T08:50:55;2.10;99.90
26408;DHT22;14583;43.604;1.364;2023-01-24T08:53:20;2.00;99.90
26408;DHT22;14583;43.604;1.364;2023-01-24T08:55:48;2.00;99.90
26408;DHT22;14583;43.604;1.364;2023-01-24T08:58:14;2.00;99.90
26408;DHT22;14583;43.604;1.364;2023-01-24T09:00:40;2.10;99.90
26408;DHT22;14583;43.604;1.364;2023-01-24T09:03:06;2.20;99.90
26408;DHT22;14583;43.604;1.364;2023-01-24T09:05:31;2.20;99.90
26408;DHT22;14583;43.604;1.364;2023-01-24T09:07:57;2.20;99.90
26408;DHT22;14583;43.604;1.364;2023-01-24T09:10:24;2.20;99.90
26408;DHT22;14583;43.604;1.364;2023-01-24T09:12:50;2.30;99.90
26408;DHT22;14583;43.604;1.364;2023-01-24T09:15:15;2.40;99.90
26408;DHT22;14583;43.604;1.364;2023-01-24T09:17:41;2.40;99.90
26408;DHT22;14583;43.604;1.364;2023-01-24T09:20:07;2.40;99.90
26408;DHT22;14583;43.604;1.364;2023-01-24T09:22:33;2.30;99.90
26408;DHT22;14583;43.604;1.364;2023-01-24T09:24:59;2.20;99.90
26408;DHT22;14583;43.604;1.364;2023-01-24T09:27:24;2.30;99.90
26408;DHT22;14583;43.604;1.364;2023-01-24T09:29:50;2.30;99.90
26408;DHT22;14583;43.604;1.364;2023-01-24T09:32:16;2.40;99.90
26408;DHT22;14583;43.604;1.364;2023-01-24T09:34:42;2.60;99.90
26408;DHT22;14583;43.604;1.364;2023-01-24T09:37:16;2.70;99.90
26408;DHT22;14583;43.604;1.364;2023-01-24T09:39:41;2.50;99.90
26408;DHT22;14583;43.604;1.364;2023-01-24T09:44:53;2.50;99.90
26408;DHT22;14583;43.604;1.364;2023-01-24T09:47:25;2.50;99.90
26408;DHT22;14583;43.604;1.364;2023-01-24T09:49:59;2.60;99.90
26408;DHT22;14583;43.604;1.364;2023-01-24T09:52:42;2.60;99.90
26408;DHT22;14583;43.604;1.364;2023-01-24T09:55:30;2.70;99.90
26408;DHT22;14583;43.604;1.364;2023-01-24T10:00:30;2.70;99.90
26408;DHT22;14583;43.604;1.364;2023-01-24T10:02:58;2.70;99.90
26408;DHT22;14583;43.604;1.364;2023-01-24T10:05:40;2.80;99.90
26408;DHT22;14583;43.604;1.364;2023-01-24T10:10:44;2.80;99.90
26408;DHT22;14583;43.604;1.364;2023-01-24T10:13:22;2.80;99.90
26408;DHT22;14583;43.604;1.364;2023-01-24T10:24:04;3.20;99.90
26408;DHT22;14583;43.604;1.364;2023-01-24T10:26:40;3.30;99.90
26408;DHT22;14583;43.604;1.364;2023-01-24T10:29:23;3.30;99.90
26408;DHT22;14583;43.604;1.364;2023-01-24T10:39:34;3.40;99.90
26408;DHT22;14583;43.604;1.364;2023-01-24T10:42:00;3.50;99.90
26408;DHT22;14583;43.604;1.364;2023-01-24T10:44:35;3.50;99.90
26408;DHT22;14583;43.604;1.364;2023-01-24T10:47:20;3.40;99.90
26408;DHT22;14583;43.604;1.364;2023-01-24T10:50:09;3.40;99.90
26408;DHT22;14583;43.604;1.364;2023-01-24T10:52:35;3.30;99.90
26408;DHT22;14583;43.604;1.364;2023-01-24T10:55:03;3.20;99.90
26408;DHT22;14583;43.604;1.364;2023-01-24T10:57:52;3.30;99.90
26408;DHT22;14583;43.604;1.364;2023-01-24T11:02:58;3.50;99.90
26408;DHT22;14583;43.604;1.364;2023-01-24T11:05:25;3.40;99.90
26408;DHT22;14583;43.604;1.364;2023-01-24T11:08:00;3.40;99.90
26408;DHT22;14583;43.604;1.364;2023-01-24T11:10:35;3.50;99.90
26408;DHT22;14583;43.604;1.364;2023-01-24T11:13:04;3.60;99.90
26408;DHT22;14583;43.604;1.364;2023-01-24T11:15:33;3.80;99.90
26408;DHT22;14583;43.604;1.364;2023-01-24T11:18:25;3.80;99.90
26408;DHT22;14583;43.604;1.364;2023-01-24T11:21:17;3.90;99.90
26408;DHT22;14583;43.604;1.364;2023-01-24T11:23:43;4.00;99.90
26408;DHT22;14583;43.604;1.364;2023-01-24T11:26:22;4.10;99.90
26408;DHT22;14583;43.604;1.364;2023-01-24T11:29:22;4.00;99.90
26408;DHT22;14583;43.604;1.364;2023-01-24T11:31:59;4.10;99.90
26408;DHT22;14583;43.604;1.364;2023-01-24T11:42:58;4.40;99.90
26408;DHT22;14583;43.604;1.364;2023-01-24T11:45:39;4.30;99.90
26408;DHT22;14583;43.604;1.364;2023-01-24T11:48:37;4.30;99.90
26408;DHT22;14583;43.604;1.364;2023-01-24T11:51:09;4.20;99.90
26408;DHT22;14583;43.604;1.364;2023-01-24T11:56:32;4.10;99.90
26408;DHT22;14583;43.604;1.364;2023-01-24T12:13:13;4.40;99.90
26408;DHT22;14583;43.604;1.364;2023-01-24T12:21:11;4.30;99.90
26408;DHT22;14583;43.604;1.364;2023-01-24T12:23:48;4.40;99.90
26408;DHT22;14583;43.604;1.364;2023-01-24T12:26:22;4.40;99.90
26408;DHT22;14583;43.604;1.364;2023-01-24T12:29:08;4.30;99.90
26408;DHT22;14583;43.604;1.364;2023-01-24T12:34:57;4.40;99.90
26408;DHT22;14583;43.604;1.364;2023-01-24T12:45:45;4.80;99.90
26408;DHT22;14583;43.604;1.364;2023-01-24T12:51:15;4.80;99.90
26408;DHT22;14583;43.604;1.364;2023-01-24T12:54:02;4.70;99.90
26408;DHT22;14583;43.604;1.364;2023-01-24T12:56:48;4.50;99.90
26408;DHT22;14583;43.604;1.364;2023-01-24T12:59:23;4.60;99.90
26408;DHT22;14583;43.604;1.364;2023-01-24T13:11:19;4.70;99.90
26408;DHT22;14583;43.604;1.364;2023-01-24T13:13:27;4.90;99.90
26408;DHT22;14583;43.604;1.364;2023-01-24T13:21:55;4.90;99.90
26408;DHT22;14583;43.604;1.364;2023-01-24T13:32:26;4.90;99.90
26408;DHT22;14583;43.604;1.364;2023-01-24T13:34:54;4.90;99.90
26408;DHT22;14583;43.604;1.364;2023-01-24T13:37:31;5.00;99.90
26408;DHT22;14583;43.604;1.364;2023-01-24T13:42:38;5.10;99.90
26408;DHT22;14583;43.604;1.364;2023-01-24T13:47:50;4.90;99.90
26408;DHT22;14583;43.604;1.364;2023-01-24T13:50:21;5.00;99.90
26408;DHT22;14583;43.604;1.364;2023-01-24T13:52:57;4.90;99.90
26408;DHT22;14583;43.604;1.364;2023-01-24T14:00:49;5.00;99.90
26408;DHT22;14583;43.604;1.364;2023-01-24T14:21:28;6.10;99.90
26408;DHT22;14583;43.604;1.364;2023-01-24T14:23:58;6.30;99.90
26408;DHT22;14583;43.604;1.364;2023-01-24T14:26:27;6.30;99.90
26408;DHT22;14583;43.604;1.364;2023-01-24T14:29:00;6.40;99.90
26408;DHT22;14583;43.604;1.364;2023-01-24T14:31:33;6.40;99.90
26408;DHT22;14583;43.604;1.364;2023-01-24T14:36:41;6.30;99.90
26408;DHT22;14583;43.604;1.364;2023-01-24T14:39:21;6.30;99.90
26408;DHT22;14583;43.604;1.364;2023-01-24T14:41:51;6.40;99.90
26408;DHT22;14583;43.604;1.364;2023-01-24T14:46:55;6.00;99.90
26408;DHT22;14583;43.604;1.364;2023-01-24T14:49:34;6.10;99.90
26408;DHT22;14583;43.604;1.364;2023-01-24T14:52:02;6.00;99.90
26408;DHT22;14583;43.604;1.364;2023-01-24T14:54:28;5.90;99.90
26408;DHT22;14583;43.604;1.364;2023-01-24T14:56:53;5.80;99.90
26408;DHT22;14583;43.604;1.364;2023-01-24T14:59:20;5.60;99.90
26408;DHT22;14583;43.604;1.364;2023-01-24T15:01:51;5.50;99.90
26408;DHT22;14583;43.604;1.364;2023-01-24T15:04:28;5.40;99.90
26408;DHT22;14583;43.604;1.364;2023-01-24T15:07:14;5.40;99.90
26408;DHT22;14583;43.604;1.364;2023-01-24T15:09:41;5.40;99.90
26408;DHT22;14583;43.604;1.364;2023-01-24T15:12:31;5.30;99.90
26408;DHT22;14583;43.604;1.364;2023-01-24T15:14:59;5.30;99.90
26408;DHT22;14583;43.604;1.364;2023-01-24T15:17:27;5.30;99.90
26408;DHT22;14583;43.604;1.364;2023-01-24T15:19:59;5.30;99.90
26408;DHT22;14583;43.604;1.364;2023-01-24T15:22:33;5.20;99.90
26408;DHT22;14583;43.604;1.364;2023-01-24T15:25:00;5.20;99.90
26408;DHT22;14583;43.604;1.364;2023-01-24T15:33:11;5.20;99.90
26408;DHT22;14583;43.604;1.364;2023-01-24T15:35:55;5.20;99.90
26408;DHT22;14583;43.604;1.364;2023-01-24T15:38:21;5.20;99.90
26408;DHT22;14583;43.604;1.364;2023-01-24T15:49:22;5.10;99.90
26408;DHT22;14583;43.604;1.364;2023-01-24T15:54:36;5.10;99.90
26408;DHT22;14583;43.604;1.364;2023-01-24T15:59:54;4.90;99.90
26408;DHT22;14583;43.604;1.364;2023-01-24T16:02:20;4.90;99.90
26408;DHT22;14583;43.604;1.364;2023-01-24T16:04:46;4.80;99.90
26408;DHT22;14583;43.604;1.364;2023-01-24T16:07:13;4.80;99.90
26408;DHT22;14583;43.604;1.364;2023-01-24T16:09:39;4.80;99.90
26408;DHT22;14583;43.604;1.364;2023-01-24T16:12:05;4.70;99.90
26408;DHT22;14583;43.604;1.364;2023-01-24T16:14:34;4.70;99.90
26408;DHT22;14583;43.604;1.364;2023-01-24T16:17:03;4.70;99.90
26408;DHT22;14583;43.604;1.364;2023-01-24T16:19:29;4.60;99.90
26408;DHT22;14583;43.604;1.364;2023-01-24T16:21:54;4.60;99.90
26408;DHT22;14583;43.604;1.364;2023-01-24T16:24:20;4.60;99.90
26408;DHT22;14583;43.604;1.364;2023-01-24T16:26:52;4.60;99.90
26408;DHT22;14583;43.604;1.364;2023-01-24T16:29:23;4.50;99.90
26408;DHT22;14583;43.604;1.364;2023-01-24T16:31:50;4.50;99.90
26408;DHT22;14583;43.604;1.364;2023-01-24T16:34:16;4.50;99.90
26408;DHT22;14583;43.604;1.364;2023-01-24T16:36:43;4.40;99.90
26408;DHT22;14583;43.604;1.364;2023-01-24T16:39:17;4.40;99.90
26408;DHT22;14583;43.604;1.364;2023-01-24T16:41:44;4.40;99.90
26408;DHT22;14583;43.604;1.364;2023-01-24T16:44:10;4.40;99.90
26408;DHT22;14583;43.604;1.364;2023-01-24T16:46:35;4.40;99.90
26408;DHT22;14583;43.604;1.364;2023-01-24T16:49:01;4.30;99.90
26408;DHT22;14583;43.604;1.364;2023-01-24T16:51:27;4.30;99.90
26408;DHT22;14583;43.604;1.364;2023-01-24T16:53:56;4.30;99.90
26408;DHT22;14583;43.604;1.364;2023-01-24T16:56:23;4.20;99.90
26408;DHT22;14583;43.604;1.364;2023-01-24T16:58:53;4.20;99.90
26408;DHT22;14583;43.604;1.364;2023-01-24T17:01:18;4.10;99.90
26408;DHT22;14583;43.604;1.364;2023-01-24T17:03:44;4.10;99.90
26408;DHT22;14583;43.604;1.364;2023-01-24T17:06:12;4.10;99.90
26408;DHT22;14583;43.604;1.364;2023-01-24T17:08:39;4.10;99.90
26408;DHT22;14583;43.604;1.364;2023-01-24T17:11:09;4.10;99.90
26408;DHT22;14583;43.604;1.364;2023-01-24T17:13:35;4.00;99.90
26408;DHT22;14583;43.604;1.364;2023-01-24T17:16:06;4.00;99.90
26408;DHT22;14583;43.604;1.364;2023-01-24T17:18:33;4.00;99.90
26408;DHT22;14583;43.604;1.364;2023-01-24T17:21:03;4.00;99.90
26408;DHT22;14583;43.604;1.364;2023-01-24T17:23:30;4.00;99.90
26408;DHT22;14583;43.604;1.364;2023-01-24T17:26:01;4.00;99.90
26408;DHT22;14583;43.604;1.364;2023-01-24T17:28:27;4.00;99.90
26408;DHT22;14583;43.604;1.364;2023-01-24T17:30:53;4.00;99.90
26408;DHT22;14583;43.604;1.364;2023-01-24T17:33:21;4.10;99.90
26408;DHT22;14583;43.604;1.364;2023-01-24T17:35:47;4.00;99.90
26408;DHT22;14583;43.604;1.364;2023-01-24T17:38:13;4.00;99.90
26408;DHT22;14583;43.604;1.364;2023-01-24T17:40:38;4.00;99.90
26408;DHT22;14583;43.604;1.364;2023-01-24T17:43:04;4.00;99.90
26408;DHT22;14583;43.604;1.364;2023-01-24T17:45:30;4.00;99.90
26408;DHT22;14583;43.604;1.364;2023-01-24T17:47:56;4.00;99.90
26408;DHT22;14583;43.604;1.364;2023-01-24T17:50:22;4.00;99.90
26408;DHT22;14583;43.604;1.364;2023-01-24T17:52:48;4.00;99.90
26408;DHT22;14583;43.604;1.364;2023-01-24T17:55:14;4.00;99.90
26408;DHT22;14583;43.604;1.364;2023-01-24T17:57:41;3.90;99.90
26408;DHT22;14583;43.604;1.364;2023-01-24T18:00:08;3.80;99.90
26408;DHT22;14583;43.604;1.364;2023-01-24T18:02:34;3.80;99.90
26408;DHT22;14583;43.604;1.364;2023-01-24T18:05:00;3.80;99.90
26408;DHT22;14583;43.604;1.364;2023-01-24T18:07:25;3.80;99.90
26408;DHT22;14583;43.604;1.364;2023-01-24T18:09:51;3.70;99.90
26408;DHT22;14583;43.604;1.364;2023-01-24T18:12:17;3.70;99.90
26408;DHT22;14583;43.604;1.364;2023-01-24T18:14:42;3.60;99.90
26408;DHT22;14583;43.604;1.364;2023-01-24T18:17:08;3.60;99.90
26408;DHT22;14583;43.604;1.364;2023-01-24T18:19:34;3.60;99.90
26408;DHT22;14583;43.604;1.364;2023-01-24T18:22:01;3.60;99.90
26408;DHT22;14583;43.604;1.364;2023-01-24T18:24:26;3.60;99.90
26408;DHT22;14583;43.604;1.364;2023-01-24T18:26:52;3.50;99.90
26408;DHT22;14583;43.604;1.364;2023-01-24T18:29:18;3.40;99.90
26408;DHT22;14583;43.604;1.364;2023-01-24T18:31:43;3.40;99.90
26408;DHT22;14583;43.604;1.364;2023-01-24T18:34:10;3.40;99.90
26408;DHT22;14583;43.604;1.364;2023-01-24T18:36:36;3.30;99.90
26408;DHT22;14583;43.604;1.364;2023-01-24T18:39:02;3.30;99.90
26408;DHT22;14583;43.604;1.364;2023-01-24T18:41:28;3.30;99.90
26408;DHT22;14583;43.604;1.364;2023-01-24T18:43:57;3.40;99.90
26408;DHT22;14583;43.604;1.364;2023-01-24T18:46:23;3.30;99.90
26408;DHT22;14583;43.604;1.364;2023-01-24T18:48:48;3.20;99.90